LLBGLLSD

Guest
Details From LLBG - Tel Aviv Ben Gurion
To LLSD - Sde Dov
Flight Number -
Tags generated
Created
Modified
Stats Distance 8 nm / 15 km
Max Altitude 100 ft / 30 m
Waypoints 3
Social Downloads 0
Likes 0
Share VATSIM

Download

Looking for another format? Having issues loading an existing format? Contact us
Advertisement - Login to hide

Notes

Basic altitude profile: - Ascent Rate: 2500ft/min - Ascent Speed: 250kts - Cruise Altitude: 35000ft - Cruise Speed: 420kts - Descent Rate: 1500ft/min - Descent Speed: 250kts Options: - Use NATs: yes - Use PACOTS: yes - Use low airways: yes - Use high airways: yes

Route

LLBG BGN LLSD

ID Type Via Altitude Latitude Longitude Leg Dist Tot Dist Heading (true) Name
O LLBG APT - 0 ft / 0 m 32.01147˚ 34.88506˚ - 0 nm - Tel Aviv Ben Gurion
BGN VOR - 100 ft / 30 m 32.01311˚ 34.87523˚ 0 nm 0 nm 281° / 281° BEN GURION VOR-DME
O LLSD APT - 0 ft / 0 m 32.11466˚ 34.78224˚ 7 nm 8 nm 322° / 322° Sde Dov

Altitude Profile

Advertisement - Login to hide

LLBG

Details ICAO LLBG (TLV)
Name Tel Aviv Ben Gurion
Region Israel
Timezone Asia/Jerusalem (UTC+2.0)
Stats Elevation 135 ft / 41 m (AMSL)
Location 32.011468° 34.885059°
Runways 3
Magnetic Variation 4.696° E

METAR

LLBG 220950Z 20014KT 9000 NSC 19/05 Q1011 NOSIG

Decode

TAF

TAF TAF LLBG 220506Z 2206/2306 17007KT CAVOK BECMG 2207/2209 23012KT 7000 PROB40 2209/2215 23018KT 5000 HZ BECMG 2215/2217 17010KT BECMG 2220/2222 SCT030 TEMPO 2300/2306 21015KT SHRA FEW025TCU BKN030 TX19/2211Z TN12/2304Z

Decode

Departure Runways

ID Width Length Bearing (true) Bearing (mag) Surface Threshold Offset Overrun Length
03 148 ft / 45 m 5,792 ft / 1,765 m 28.88° 24.18° Asphalt 0 ft / 0 m 216 ft / 66 m
08 148 ft / 45 m 12,017 ft / 3,663 m 79.72° 75.02° Asphalt 0 ft / 0 m 295 ft / 90 m
12 148 ft / 45 m 10,279 ft / 3,133 m 121.54° 116.84° Asphalt 0 ft / 0 m 328 ft / 100 m
21 148 ft / 45 m 5,792 ft / 1,765 m 208.88° 204.18° Asphalt 0 ft / 0 m 216 ft / 66 m
26 148 ft / 45 m 12,017 ft / 3,663 m 259.74° 255.04° Asphalt 1,969 ft / 600 m 205 ft / 62 m
30 148 ft / 45 m 10,279 ft / 3,133 m 301.56° 296.86° Asphalt 246 ft / 75 m 347 ft / 106 m

LLSD

Details ICAO LLSD (SDV)
Name Sde Dov
Region Israel
Timezone Asia/Jerusalem (UTC+2.0)
Stats Elevation 43 ft / 13 m (AMSL)
Location 32.114661° 34.782238°
Runways 1
Magnetic Variation 4.706° E

METAR

LLSD 220950Z 19012KT CAVOK 18/08 Q1011

Decode

TAF

TAF LLSD 220507Z 2206/2306 16010KT CAVOK BECMG 2207/2209 21015KT 7000 TEMPO 2209/2215 23020KT 5000 HZ BECMG 2220/2223 24020KT SHRA FEW025TCU BKN030 TX18/2211Z TN14/2304Z

Decode

Destination Runways

ID Width Length Bearing (true) Bearing (mag) Surface Threshold Offset Overrun Length
03 98 ft / 30 m 5,704 ft / 1,738 m 27.61° 22.90° Asphalt 341 ft / 104 m 0 ft / 0 m
21 98 ft / 30 m 5,704 ft / 1,738 m 207.61° 202.90° Asphalt 230 ft / 70 m 0 ft / 0 m

Popular Alternatives